TimeMDT,TemperatureF,Dew PointF,Humidity,Sea Level PressureIn,VisibilityMPH,Wind Direction,Wind SpeedMPH,Gust SpeedMPH,PrecipitationIn,Events,Conditions,WindDirDegrees,DateUTC
12:53 AM,61.0,53.1,75,29.78,10.0,SSW,12.7,-,N/A,,Clear,200,2013-06-20 06:53:00
1:53 AM,57.9,52.0,81,29.78,10.0,SW,9.2,-,N/A,,Clear,230,2013-06-20 07:53:00
2:53 AM,57.0,52.0,83,29.77,10.0,WSW,3.5,-,N/A,,Clear,240,2013-06-20 08:53:00
3:53 AM,55.0,52.0,89,29.75,10.0,South,5.8,-,N/A,,Clear,190,2013-06-20 09:53:00
4:53 AM,53.1,48.9,86,29.77,10.0,SSW,11.5,-,N/A,,Clear,200,2013-06-20 10:53:00
5:53 AM,54.0,51.1,90,29.78,10.0,SW,8.1,-,N/A,,Clear,230,2013-06-20 11:53:00
6:53 AM,57.0,52.0,83,29.80,10.0,WSW,6.9,-,N/A,,Clear,240,2013-06-20 12:53:00
7:53 AM,64.9,48.9,56,29.83,10.0,WSW,5.8,-,N/A,,Clear,250,2013-06-20 13:53:00
8:53 AM,73.0,35.1,25,29.82,10.0,West,9.2,-,N/A,,Clear,260,2013-06-20 14:53:00
9:53 AM,80.1,18.0,10,29.79,10.0,WSW,18.4,27.6,N/A,,Clear,240,2013-06-20 15:53:00
10:53 AM,82.0,18.0,9,29.79,10.0,SW,23.0,32.2,N/A,,Clear,230,2013-06-20 16:53:00
11:53 AM,82.9,10.9,7,29.78,10.0,SW,18.4,29.9,N/A,,Clear,230,2013-06-20 17:53:00
12:53 PM,84.9,10.9,6,29.77,10.0,SW,20.7,34.5,N/A,,Clear,230,2013-06-20 18:53:00
1:53 PM,88.0,-0.9,4,29.75,10.0,SSW,26.5,39.1,N/A,,Clear,210,2013-06-20 19:53:00
2:53 PM,88.0,-8.0,4,29.74,10.0,SW,31.1,41.4,N/A,,Clear,220,2013-06-20 20:53:00
3:53 PM,88.0,-4.0,4,29.73,10.0,SW,26.5,38.0,N/A,,Clear,230,2013-06-20 21:53:00
4:53 PM,88.0,-4.0,4,29.72,10.0,WSW,20.7,32.2,N/A,,Clear,240,2013-06-20 22:53:00
5:53 PM,86.0,1.9,4,29.71,10.0,West,15.0,35.7,N/A,,Clear,260,2013-06-20 23:53:00
6:53 PM,84.9,1.0,4,29.71,10.0,West,19.6,26.5,N/A,,Clear,270,2013-06-21 00:53:00
7:53 PM,81.0,1.9,5,29.71,10.0,WSW,6.9,-,N/A,,Clear,240,2013-06-21 01:53:00
8:53 PM,72.0,41.0,33,29.74,10.0,SE,23.0,33.4,N/A,,Clear,140,2013-06-21 02:53:00
9:53 PM,71.1,45.0,39,29.75,10.0,South,31.1,42.6,N/A,,Clear,170,2013-06-21 03:53:00
10:53 PM,68.0,46.0,45,29.80,10.0,South,24.2,34.5,N/A,,Clear,170,2013-06-21 04:53:00
11:53 PM,66.0,46.9,50,29.81,10.0,South,27.6,38.0,N/A,,Clear,180,2013-06-21 05:53:00